Time;durP1;ratioP1;P1;durP2;ratioP2;P2;SDS_P1;SDS_P2;PMS_P1;PMS_P2;Temp;Humidity;BMP_temperature;BMP_pressure;BME280_temperature;BME280_humidity;BME280_pressure;Samples;Min_cycle;Max_cycle;Signal;HPM_P1;HPM_P2
2023/07/30 00:01:53;;;;;;;19.50;4.70;;;;;;;;;;5012245;28;20068;-80
2023/07/30 00:04:23;;;;;;;7.78;4.68;;;;;;;;;;5008715;28;20121;-79
2023/07/30 00:06:49;;;;;;;6.05;4.45;;;;;;;;;;4997297;28;20080;-79
2023/07/30 00:09:14;;;;;;;6.43;4.55;;;;;;;;;;4997931;28;20065;-79
2023/07/30 00:11:40;;;;;;;8.80;4.90;;;;;;;;;;5015212;28;20033;-80
2023/07/30 00:14:05;;;;;;;6.40;4.80;;;;;;;;;;5015750;28;20124;-81
2023/07/30 00:16:31;;;;;;;6.18;4.53;;;;;;;;;;5001509;28;20037;-80
2023/07/30 00:18:56;;;;;;;6.50;4.47;;;;;;;;;;5024259;28;20042;-80
2023/07/30 00:21:22;;;;;;;6.22;5.03;;;;;;;;;;5003029;28;20047;-80
2023/07/30 00:23:47;;;;;;;5.90;4.43;;;;;;;;;;5027259;28;20099;-80
2023/07/30 00:26:13;;;;;;;6.47;4.63;;;;;;;;;;5026592;28;20061;-80
2023/07/30 00:28:38;;;;;;;6.57;4.35;;;;;;;;;;5020271;28;20111;-80
2023/07/30 00:31:04;;;;;;;6.40;4.57;;;;;;;;;;5029946;28;20037;-80
2023/07/30 00:33:29;;;;;;;5.57;4.15;;;;;;;;;;4998748;28;20040;-80
2023/07/30 00:35:54;;;;;;;7.22;4.47;;;;;;;;;;5021235;28;20123;-80
2023/07/30 00:38:24;;;;;;;6.90;4.70;;;;;;;;;;5019251;28;20034;-80
2023/07/30 00:40:50;;;;;;;6.20;4.63;;;;;;;;;;5006135;28;20509;-80
2023/07/30 00:43:16;;;;;;;7.60;4.35;;;;;;;;;;5025965;28;20065;-80
2023/07/30 00:45:44;;;;;;;6.47;4.22;;;;;;;;;;5006104;28;20033;-80
2023/07/30 00:48:11;;;;;;;7.05;4.13;;;;;;;;;;5017588;28;20041;-80
2023/07/30 00:50:37;;;;;;;5.50;4.25;;;;;;;;;;5008784;28;20033;-80
2023/07/30 00:53:02;;;;;;;6.78;4.57;;;;;;;;;;5007077;28;20049;-80
2023/07/30 00:55:27;;;;;;;7.10;3.90;;;;;;;;;;5014280;28;20421;-80
2023/07/30 00:57:53;;;;;;;6.45;4.13;;;;;;;;;;5014799;28;20040;-80
2023/07/30 01:00:18;;;;;;;6.97;4.35;;;;;;;;;;5007908;28;20096;-80
2023/07/30 01:02:44;;;;;;;7.35;4.70;;;;;;;;;;5017520;28;20092;-80
2023/07/30 01:05:09;;;;;;;5.45;4.20;;;;;;;;;;5000560;28;20046;-80
2023/07/30 01:07:35;;;;;;;8.98;4.32;;;;;;;;;;5032882;28;20488;-80
2023/07/30 01:10:01;;;;;;;5.68;4.43;;;;;;;;;;5005636;28;20040;-80
2023/07/30 01:12:31;;;;;;;5.55;4.38;;;;;;;;;;5007378;28;20034;-80
2023/07/30 01:14:56;;;;;;;7.85;4.55;;;;;;;;;;5016519;28;20128;-80
2023/07/30 01:17:22;;;;;;;6.43;4.43;;;;;;;;;;5007671;28;20124;-80
2023/07/30 01:19:49;;;;;;;5.53;4.28;;;;;;;;;;5005119;28;20568;-79
2023/07/30 01:22:18;;;;;;;5.13;4.27;;;;;;;;;;5021118;28;20061;-80
2023/07/30 01:24:43;;;;;;;6.35;4.55;;;;;;;;;;5006937;28;20064;-82
2023/07/30 01:27:12;;;;;;;6.88;4.57;;;;;;;;;;5007252;28;20057;-80
2023/07/30 01:29:42;;;;;;;5.63;4.28;;;;;;;;;;5005633;28;20034;-81
2023/07/30 01:32:09;;;;;;;6.28;4.50;;;;;;;;;;5013965;28;20103;-79
2023/07/30 01:34:36;;;;;;;6.00;4.10;;;;;;;;;;4998484;28;20052;-80
2023/07/30 01:37:03;;;;;;;8.68;4.95;;;;;;;;;;5046178;28;20124;-80
2023/07/30 01:39:29;;;;;;;6.15;4.50;;;;;;;;;;5001972;28;20552;-79
2023/07/30 01:41:54;;;;;;;6.88;4.82;;;;;;;;;;5001502;28;20124;-80
2023/07/30 01:44:25;;;;;;;5.63;4.50;;;;;;;;;;5001610;28;20176;-83
2023/07/30 01:46:50;;;;;;;6.32;4.75;;;;;;;;;;5020704;28;20899;-80
2023/07/30 01:49:16;;;;;;;7.70;4.80;;;;;;;;;;5048003;28;20043;-80
2023/07/30 01:51:41;;;;;;;7.28;4.70;;;;;;;;;;5037661;28;20041;-80
2023/07/30 01:54:07;;;;;;;8.95;4.78;;;;;;;;;;5003177;28;20067;-80
2023/07/30 01:56:35;;;;;;;5.80;4.93;;;;;;;;;;5039575;28;20042;-80
2023/07/30 01:59:00;;;;;;;6.45;4.50;;;;;;;;;;5016890;28;20041;-80
2023/07/30 02:01:25;;;;;;;6.38;4.60;;;;;;;;;;5005408;28;20497;-80
2023/07/30 02:03:51;;;;;;;6.35;4.75;;;;;;;;;;4998558;28;20042;-80
2023/07/30 02:06:16;;;;;;;7.50;4.93;;;;;;;;;;5004727;28;20064;-80
2023/07/30 02:08:42;;;;;;;9.68;5.07;;;;;;;;;;5012359;28;20042;-80
2023/07/30 02:11:07;;;;;;;10.20;5.28;;;;;;;;;;5027781;28;20036;-79
2023/07/30 02:13:33;;;;;;;6.75;4.93;;;;;;;;;;4993166;28;20736;-80
2023/07/30 02:15:58;;;;;;;8.45;5.22;;;;;;;;;;5015464;28;20037;-80
2023/07/30 02:18:24;;;;;;;7.15;4.85;;;;;;;;;;5008046;28;20106;-80
2023/07/30 02:20:49;;;;;;;6.00;4.80;;;;;;;;;;5003654;28;20144;-80
2023/07/30 02:23:18;;;;;;;8.13;5.20;;;;;;;;;;5024568;28;20380;-80
2023/07/30 02:25:43;;;;;;;6.25;5.18;;;;;;;;;;5033636;28;20034;-80
2023/07/30 02:28:09;;;;;;;7.43;4.88;;;;;;;;;;5010144;28;20045;-80
2023/07/30 02:30:34;;;;;;;7.95;5.07;;;;;;;;;;5020420;28;20033;-80
2023/07/30 02:33:00;;;;;;;8.48;5.22;;;;;;;;;;5024783;28;20041;-80
2023/07/30 02:35:25;;;;;;;8.82;5.40;;;;;;;;;;5018751;28;20435;-80
2023/07/30 02:37:51;;;;;;;8.10;4.88;;;;;;;;;;5020768;28;20034;-79
2023/07/30 02:40:19;;;;;;;7.80;5.50;;;;;;;;;;5031583;28;20033;-81
2023/07/30 02:42:44;;;;;;;7.35;5.55;;;;;;;;;;5006031;28;20394;-80
2023/07/30 02:45:10;;;;;;;8.70;6.00;;;;;;;;;;4992607;28;20037;-80
2023/07/30 02:47:35;;;;;;;7.95;5.57;;;;;;;;;;5009759;28;20042;-80
2023/07/30 02:50:03;;;;;;;8.20;5.60;;;;;;;;;;5005014;28;20046;-80
2023/07/30 02:52:28;;;;;;;;;;;;;;;;;;5014725;28;20396;-80
2023/07/30 02:54:53;;;;;;;6.95;5.80;;;;;;;;;;5022512;28;19917;-80
2023/07/30 02:57:19;;;;;;;12.32;5.97;;;;;;;;;;5019077;28;20039;-80
2023/07/30 02:59:44;;;;;;;9.30;5.90;;;;;;;;;;5014193;28;20033;-80
2023/07/30 03:02:10;;;;;;;8.30;5.75;;;;;;;;;;5017472;28;20034;-80
2023/07/30 03:04:36;;;;;;;8.15;6.10;;;;;;;;;;5004103;28;20045;-81
2023/07/30 03:07:01;;;;;;;7.65;6.35;;;;;;;;;;5021076;28;20044;-80
2023/07/30 03:09:27;;;;;;;7.75;5.82;;;;;;;;;;5021300;28;20122;-80
2023/07/30 03:11:53;;;;;;;7.03;5.63;;;;;;;;;;5025177;28;20033;-79
2023/07/30 03:14:21;;;;;;;8.88;6.35;;;;;;;;;;5023504;28;20037;-80
2023/07/30 03:16:48;;;;;;;7.78;5.40;;;;;;;;;;5018439;28;20037;-80
2023/07/30 03:19:13;;;;;;;7.50;5.88;;;;;;;;;;5018619;28;20037;-79
2023/07/30 03:21:39;;;;;;;8.07;5.75;;;;;;;;;;5005457;28;20033;-80
2023/07/30 03:24:08;;;;;;;7.55;5.68;;;;;;;;;;4988505;28;20088;-80
2023/07/30 03:26:33;;;;;;;8.80;5.90;;;;;;;;;;4992346;28;20112;-80
2023/07/30 03:28:59;;;;;;;7.28;6.00;;;;;;;;;;5013513;28;20196;-79
2023/07/30 03:31:30;;;;;;;6.85;6.13;;;;;;;;;;5000869;28;20037;-80
2023/07/30 03:33:56;;;;;;;7.65;5.82;;;;;;;;;;5038577;28;20120;-79
2023/07/30 03:36:21;;;;;;;8.32;6.35;;;;;;;;;;5009745;28;20540;-80
2023/07/30 03:38:46;;;;;;;7.40;6.13;;;;;;;;;;4999228;28;20042;-79
2023/07/30 03:41:12;;;;;;;10.05;6.10;;;;;;;;;;5002548;28;20190;-80
2023/07/30 03:43:40;;;;;;;9.05;6.07;;;;;;;;;;5021929;28;20029;-80
2023/07/30 03:46:05;;;;;;;7.07;5.80;;;;;;;;;;5024272;28;20033;-80
2023/07/30 03:48:31;;;;;;;7.82;6.07;;;;;;;;;;5018789;28;20043;-79
2023/07/30 03:50:56;;;;;;;8.25;6.50;;;;;;;;;;5017638;28;20449;-80
2023/07/30 03:53:22;;;;;;;8.77;6.10;;;;;;;;;;5014710;28;20030;-81
2023/07/30 03:55:48;;;;;;;7.47;6.30;;;;;;;;;;5008805;28;20034;-80
2023/07/30 03:58:14;;;;;;;9.35;6.47;;;;;;;;;;4999611;28;20070;-79
2023/07/30 04:00:39;;;;;;;9.05;6.85;;;;;;;;;;5014892;28;20065;-80
2023/07/30 04:03:05;;;;;;;8.52;6.22;;;;;;;;;;5017589;28;20041;-80
2023/07/30 04:05:33;;;;;;;7.30;5.85;;;;;;;;;;5008801;28;20049;-80
2023/07/30 04:07:58;;;;;;;8.10;5.85;;;;;;;;;;4992649;28;20049;-80
2023/07/30 04:10:24;;;;;;;8.40;6.45;;;;;;;;;;5004964;28;20056;-80
2023/07/30 04:12:49;;;;;;;7.50;6.47;;;;;;;;;;5001504;28;20036;-80
2023/07/30 04:15:15;;;;;;;8.32;6.22;;;;;;;;;;5015021;28;20421;-80
2023/07/30 04:17:41;;;;;;;9.82;6.40;;;;;;;;;;5012805;28;20040;-79
2023/07/30 04:20:09;;;;;;;8.80;5.88;;;;;;;;;;5013824;28;20401;-82
2023/07/30 04:22:35;;;;;;;6.68;5.95;;;;;;;;;;5034660;28;20619;-81
2023/07/30 04:25:00;;;;;;;7.40;6.20;;;;;;;;;;5037124;28;20508;-82
2023/07/30 04:27:29;;;;;;;6.95;5.95;;;;;;;;;;5022909;28;20045;-82
2023/07/30 04:29:54;;;;;;;6.63;5.80;;;;;;;;;;5025116;28;20072;-81
2023/07/30 04:32:20;;;;;;;8.18;6.18;;;;;;;;;;5031113;28;20123;-81
2023/07/30 04:34:45;;;;;;;7.78;6.68;;;;;;;;;;4997416;28;20039;-81
2023/07/30 04:37:14;;;;;;;6.80;5.80;;;;;;;;;;5027873;28;20039;-81
2023/07/30 04:39:39;;;;;;;8.00;6.25;;;;;;;;;;5031389;28;20033;-81
2023/07/30 04:42:05;;;;;;;6.15;5.50;;;;;;;;;;5004460;28;20397;-81
2023/07/30 04:44:30;;;;;;;8.23;6.05;;;;;;;;;;4998621;28;20037;-82
2023/07/30 04:47:01;;;;;;;8.38;6.10;;;;;;;;;;5016554;28;20912;-82
2023/07/30 04:49:26;;;;;;;7.85;5.80;;;;;;;;;;5009453;28;20045;-82
2023/07/30 04:51:52;;;;;;;6.97;5.80;;;;;;;;;;5011915;28;20052;-82
2023/07/30 04:54:17;;;;;;;7.68;5.40;;;;;;;;;;5008239;28;20168;-81
2023/07/30 04:56:42;;;;;;;6.65;5.22;;;;;;;;;;5008998;28;20032;-81
2023/07/30 04:59:08;;;;;;;7.80;4.97;;;;;;;;;;5028771;28;20604;-82
2023/07/30 05:01:33;;;;;;;6.25;4.72;;;;;;;;;;5033731;28;20055;-81
2023/07/30 05:03:58;;;;;;;5.55;4.82;;;;;;;;;;5028216;28;20139;-82
2023/07/30 05:06:24;;;;;;;8.80;4.53;;;;;;;;;;5045027;28;20030;-80
2023/07/30 05:08:49;;;;;;;6.50;4.72;;;;;;;;;;5021316;28;20473;-82
2023/07/30 05:11:15;;;;;;;6.75;4.40;;;;;;;;;;5015252;28;20052;-82
2023/07/30 05:13:40;;;;;;;6.20;4.43;;;;;;;;;;5028491;28;20044;-82
2023/07/30 05:16:06;;;;;;;4.97;4.00;;;;;;;;;;5013697;28;20507;-81
2023/07/30 05:18:31;;;;;;;7.53;4.18;;;;;;;;;;5016177;28;20045;-82
2023/07/30 05:20:57;;;;;;;5.95;4.20;;;;;;;;;;5003158;28;20052;-83
2023/07/30 05:23:33;;;;;;;5.45;4.10;;;;;;;;;;5036404;28;20049;-81
2023/07/30 05:25:58;;;;;;;5.85;3.80;;;;;;;;;;5017179;28;20485;-81
2023/07/30 05:28:23;;;;;;;4.70;3.75;;;;;;;;;;5009441;28;20041;-81
2023/07/30 05:30:49;;;;;;;5.45;3.60;;;;;;;;;;5006763;28;20033;-82
2023/07/30 05:33:14;;;;;;;4.63;3.28;;;;;;;;;;5009216;28;20037;-82
2023/07/30 05:35:40;;;;;;;4.47;3.45;;;;;;;;;;5000764;28;20054;-82
2023/07/30 05:38:05;;;;;;;4.07;3.30;;;;;;;;;;5001327;28;20069;-81
2023/07/30 05:40:31;;;;;;;5.45;3.08;;;;;;;;;;5020603;28;20034;-82
2023/07/30 05:43:04;;;;;;;5.38;3.38;;;;;;;;;;5017971;28;20037;-82
2023/07/30 05:45:30;;;;;;;4.70;3.22;;;;;;;;;;5003248;28;20819;-81
2023/07/30 05:47:55;;;;;;;5.53;2.97;;;;;;;;;;5024454;28;20050;-82
2023/07/30 05:50:20;;;;;;;4.47;3.05;;;;;;;;;;5005761;28;20046;-82
2023/07/30 05:52:46;;;;;;;4.35;3.10;;;;;;;;;;5014198;28;20036;-81
2023/07/30 05:55:11;;;;;;;4.07;3.00;;;;;;;;;;4995905;28;20041;-82
2023/07/30 05:57:36;;;;;;;4.22;2.88;;;;;;;;;;5018971;28;20060;-82
2023/07/30 06:00:02;;;;;;;7.18;3.30;;;;;;;;;;5024075;28;20421;-82
2023/07/30 06:02:28;;;;;;;4.43;2.70;;;;;;;;;;5010451;28;20041;-81
2023/07/30 06:04:53;;;;;;;5.10;2.80;;;;;;;;;;5035577;28;20449;-82
2023/07/30 06:07:19;;;;;;;3.50;2.50;;;;;;;;;;5014610;28;20103;-82
2023/07/30 06:09:45;;;;;;;5.25;2.80;;;;;;;;;;5015930;28;20038;-82
2023/07/30 06:12:13;;;;;;;3.65;2.38;;;;;;;;;;4993889;28;20045;-81
2023/07/30 06:14:39;;;;;;;3.88;2.47;;;;;;;;;;4996050;28;20030;-82
2023/07/30 06:17:04;;;;;;;4.40;2.40;;;;;;;;;;5046780;28;20481;-81
2023/07/30 06:19:30;;;;;;;4.15;2.40;;;;;;;;;;5042025;28;20498;-82
2023/07/30 06:21:56;;;;;;;4.78;2.60;;;;;;;;;;5013240;28;20038;-82
2023/07/30 06:24:21;;;;;;;3.05;2.28;;;;;;;;;;4999570;28;20069;-81
2023/07/30 06:26:47;;;;;;;3.85;2.20;;;;;;;;;;5005941;28;20188;-81
2023/07/30 06:29:12;;;;;;;5.63;2.40;;;;;;;;;;5014084;28;20042;-82
2023/07/30 06:31:43;;;;;;;4.05;2.40;;;;;;;;;;5004471;28;20091;-82
2023/07/30 06:34:09;;;;;;;4.85;2.45;;;;;;;;;;5003950;28;20078;-81
2023/07/30 06:36:35;;;;;;;3.88;2.40;;;;;;;;;;4996694;28;20034;-82
2023/07/30 06:39:00;;;;;;;4.72;2.50;;;;;;;;;;5029669;28;20389;-82
2023/07/30 06:41:26;;;;;;;3.85;2.50;;;;;;;;;;5000734;28;20091;-82
2023/07/30 06:43:52;;;;;;;4.53;2.70;;;;;;;;;;5011250;28;20033;-82
2023/07/30 06:46:20;;;;;;;4.35;2.50;;;;;;;;;;4998844;28;20045;-82
2023/07/30 06:48:45;;;;;;;4.85;2.50;;;;;;;;;;5001077;28;20051;-82
2023/07/30 06:51:12;;;;;;;4.57;2.50;;;;;;;;;;5044258;28;20045;-82
2023/07/30 06:53:38;;;;;;;3.92;2.33;;;;;;;;;;4998314;28;20495;-82
2023/07/30 06:56:03;;;;;;;4.93;2.60;;;;;;;;;;5044267;28;20038;-82
2023/07/30 06:58:29;;;;;;;3.92;2.40;;;;;;;;;;5005517;28;20874;-82
2023/07/30 07:00:54;;;;;;;4.20;2.30;;;;;;;;;;5003756;28;20038;-83
2023/07/30 07:03:19;;;;;;;3.88;2.40;;;;;;;;;;5018042;28;20041;-83
2023/07/30 07:05:45;;;;;;;4.10;2.30;;;;;;;;;;5005434;28;20500;-82
2023/07/30 07:08:10;;;;;;;4.30;2.20;;;;;;;;;;4996443;28;20049;-82
2023/07/30 07:10:36;;;;;;;3.60;2.28;;;;;;;;;;5030774;28;20042;-83
2023/07/30 07:13:01;;;;;;;4.40;2.10;;;;;;;;;;5005279;28;20108;-82
2023/07/30 07:15:27;;;;;;;3.60;2.17;;;;;;;;;;5011154;28;20476;-83
2023/07/30 07:17:52;;;;;;;5.22;2.30;;;;;;;;;;5012988;28;20818;-81
2023/07/30 07:20:18;;;;;;;4.75;2.20;;;;;;;;;;5011307;28;20038;-83
2023/07/30 07:22:43;;;;;;;4.63;1.77;;;;;;;;;;5012084;28;20047;-83
2023/07/30 07:25:09;;;;;;;5.55;2.00;;;;;;;;;;5011371;28;20088;-82
2023/07/30 07:27:34;;;;;;;3.10;1.80;;;;;;;;;;4998819;28;20041;-83
2023/07/30 07:30:00;;;;;;;3.50;2.00;;;;;;;;;;5003043;28;20674;-83
2023/07/30 07:32:25;;;;;;;3.70;1.83;;;;;;;;;;5014275;28;20034;-83
2023/07/30 07:34:51;;;;;;;3.50;1.80;;;;;;;;;;5013043;28;20034;-83
2023/07/30 07:37:18;;;;;;;4.47;2.03;;;;;;;;;;4989729;28;20467;-83
2023/07/30 07:39:44;;;;;;;3.63;1.80;;;;;;;;;;4999565;28;20034;-82
2023/07/30 07:42:12;;;;;;;3.95;1.67;;;;;;;;;;4995470;28;20037;-83
2023/07/30 07:44:40;;;;;;;3.72;2.08;;;;;;;;;;5008094;28;20038;-83
2023/07/30 07:47:09;;;;;;;4.85;1.45;;;;;;;;;;4998710;28;20041;-82
2023/07/30 07:49:34;;;;;;;3.42;1.77;;;;;;;;;;4990575;28;20033;-82
2023/07/30 07:51:59;;;;;;;5.75;1.80;;;;;;;;;;5020980;28;20464;-82
2023/07/30 07:54:25;;;;;;;3.30;1.77;;;;;;;;;;5030818;28;20112;-81
2023/07/30 07:56:50;;;;;;;3.78;1.90;;;;;;;;;;4998190;28;20151;-82
2023/07/30 07:59:19;;;;;;;4.97;1.85;;;;;;;;;;5002455;28;20033;-82
2023/07/30 08:01:44;;;;;;;2.80;1.60;;;;;;;;;;5005771;28;20033;-83
2023/07/30 08:04:10;;;;;;;7.55;1.90;;;;;;;;;;5014334;28;20045;-81
2023/07/30 08:06:36;;;;;;;5.18;1.90;;;;;;;;;;5001599;28;20047;-82
2023/07/30 08:09:01;;;;;;;3.92;2.00;;;;;;;;;;5019022;28;20405;-83
2023/07/30 08:11:27;;;;;;;6.97;1.90;;;;;;;;;;5024797;28;20033;-82
2023/07/30 08:13:52;;;;;;;4.60;1.77;;;;;;;;;;4989380;28;20088;-83
2023/07/30 08:16:18;;;;;;;5.47;1.70;;;;;;;;;;4997842;28;20133;-82
2023/07/30 08:18:43;;;;;;;3.17;1.70;;;;;;;;;;4994027;28;20037;-82
2023/07/30 08:21:09;;;;;;;3.67;1.70;;;;;;;;;;4987107;28;20041;-82
2023/07/30 08:23:34;;;;;;;4.68;1.80;;;;;;;;;;5000563;28;20038;-82
2023/07/30 08:26:00;;;;;;;3.38;1.65;;;;;;;;;;5029856;28;20042;-82
2023/07/30 08:28:25;;;;;;;2.95;1.60;;;;;;;;;;5018428;28;20123;-83
2023/07/30 08:30:51;;;;;;;3.92;1.52;;;;;;;;;;5025232;28;20091;-82
2023/07/30 08:33:16;;;;;;;3.50;1.50;;;;;;;;;;5036675;28;20477;-82
2023/07/30 08:35:47;;;;;;;3.15;1.50;;;;;;;;;;5024391;28;20039;-81
2023/07/30 08:38:12;;;;;;;4.00;1.35;;;;;;;;;;5029823;28;20065;-81
2023/07/30 08:40:38;;;;;;;3.95;1.50;;;;;;;;;;5019342;28;20072;-83
2023/07/30 08:43:06;;;;;;;5.07;1.50;;;;;;;;;;5012467;28;20053;-82
2023/07/30 08:45:34;;;;;;;2.47;1.30;;;;;;;;;;5001976;28;20135;-82
2023/07/30 08:47:59;;;;;;;3.33;1.70;;;;;;;;;;5004850;28;20041;-83
2023/07/30 08:50:26;;;;;;;3.83;1.55;;;;;;;;;;4999949;28;20044;-82
2023/07/30 08:52:51;;;;;;;4.38;1.60;;;;;;;;;;5004338;28;20508;-83
2023/07/30 08:55:33;;;;;;;4.57;1.83;;;;;;;;;;5016362;28;20037;-82
2023/07/30 08:58:01;;;;;;;3.25;1.65;;;;;;;;;;5006119;28;20196;-80
2023/07/30 09:00:31;;;;;;;4.30;1.58;;;;;;;;;;4997087;28;20033;-82
2023/07/30 09:03:03;;;;;;;4.30;1.50;;;;;;;;;;5006241;28;20080;-80
2023/07/30 09:05:31;;;;;;;3.47;1.40;;;;;;;;;;5012460;28;20050;-83
2023/07/30 09:07:57;;;;;;;4.75;1.73;;;;;;;;;;5015327;28;20048;-81
2023/07/30 09:10:23;;;;;;;2.88;1.35;;;;;;;;;;5003597;28;20496;-82
2023/07/30 09:12:57;;;;;;;2.58;1.15;;;;;;;;;;5014342;28;20049;-81
2023/07/30 09:15:33;;;;;;;4.32;1.52;;;;;;;;;;5010639;28;20033;-82
2023/07/30 09:18:00;;;;;;;3.92;1.60;;;;;;;;;;5015246;28;20195;-82
2023/07/30 09:20:26;;;;;;;3.80;1.40;;;;;;;;;;5009158;28;20410;-81
2023/07/30 09:22:52;;;;;;;6.65;1.60;;;;;;;;;;4986709;28;20390;-82
2023/07/30 09:25:20;;;;;;;3.45;1.45;;;;;;;;;;5004586;28;20045;-83
2023/07/30 09:27:50;;;;;;;3.28;1.23;;;;;;;;;;5020908;28;20045;-82
2023/07/30 09:30:24;;;;;;;2.95;1.10;;;;;;;;;;5018182;28;20064;-83
2023/07/30 09:32:59;;;;;;;4.45;1.35;;;;;;;;;;4999916;28;20401;-82
2023/07/30 09:35:25;;;;;;;4.15;1.20;;;;;;;;;;5033820;28;20499;-83
2023/07/30 09:38:01;;;;;;;3.00;1.10;;;;;;;;;;5006728;28;20037;-83
2023/07/30 09:40:35;;;;;;;3.33;1.40;;;;;;;;;;5014490;28;20026;-81
2023/07/30 09:43:03;;;;;;;4.30;1.30;;;;;;;;;;5024558;28;20049;-82
2023/07/30 09:45:31;;;;;;;3.28;1.25;;;;;;;;;;5022795;28;20515;-82
2023/07/30 09:48:04;;;;;;;2.72;1.15;;;;;;;;;;4998841;28;20187;-82
2023/07/30 09:50:30;;;;;;;2.90;1.30;;;;;;;;;;4997558;28;20030;-82
2023/07/30 09:52:56;;;;;;;3.22;1.20;;;;;;;;;;5004151;28;20413;-82
2023/07/30 09:55:21;;;;;;;2.83;1.13;;;;;;;;;;5030769;28;20182;-80
2023/07/30 09:57:47;;;;;;;3.53;1.20;;;;;;;;;;5000670;28;20498;-79
2023/07/30 10:00:13;;;;;;;2.38;1.05;;;;;;;;;;4994634;28;20060;-82
2023/07/30 10:02:40;;;;;;;3.10;1.00;;;;;;;;;;5006722;28;20116;-83
2023/07/30 10:05:17;;;;;;;2.95;1.20;;;;;;;;;;5010873;28;20053;-81
2023/07/30 10:07:53;;;;;;;4.07;1.30;;;;;;;;;;4996219;28;20041;-81
2023/07/30 10:10:20;;;;;;;8.75;1.75;;;;;;;;;;5024277;28;20092;-82
2023/07/30 10:12:46;;;;;;;3.78;1.40;;;;;;;;;;5024318;28;20033;-81
2023/07/30 10:15:26;;;;;;;3.53;1.00;;;;;;;;;;5013862;28;20072;-82
2023/07/30 10:17:52;;;;;;;2.95;1.02;;;;;;;;;;5039949;28;20108;-82
2023/07/30 10:20:25;;;;;;;5.28;1.17;;;;;;;;;;5020411;28;20125;-81
2023/07/30 10:22:55;;;;;;;2.88;0.95;;;;;;;;;;5002335;28;20033;-82
2023/07/30 10:25:27;;;;;;;3.05;1.20;;;;;;;;;;5015161;28;20033;-83
2023/07/30 10:27:52;;;;;;;4.10;1.00;;;;;;;;;;5013888;28;20080;-82
2023/07/30 10:30:19;;;;;;;3.17;1.20;;;;;;;;;;5013616;28;20171;-82
2023/07/30 10:33:03;;;;;;;4.88;1.30;;;;;;;;;;5017986;28;20048;-82
2023/07/30 10:35:35;;;;;;;3.17;1.15;;;;;;;;;;5019408;28;20117;-82
2023/07/30 10:38:15;;;;;;;3.20;1.17;;;;;;;;;;5018249;28;20041;-82
2023/07/30 10:40:41;;;;;;;3.28;1.20;;;;;;;;;;5017234;28;20033;-82
2023/07/30 10:43:16;;;;;;;2.80;1.23;;;;;;;;;;5032628;28;20044;-82
2023/07/30 10:45:51;;;;;;;3.83;1.40;;;;;;;;;;5022188;28;20700;-82
2023/07/30 10:48:21;;;;;;;3.08;1.20;;;;;;;;;;5026300;28;20507;-81
2023/07/30 10:50:48;;;;;;;3.95;1.25;;;;;;;;;;5030599;28;20061;-82
2023/07/30 10:53:16;;;;;;;4.07;1.20;;;;;;;;;;5015549;28;20405;-81
2023/07/30 10:55:42;;;;;;;4.03;1.27;;;;;;;;;;5033487;28;20112;-82
2023/07/30 10:58:14;;;;;;;2.75;0.95;;;;;;;;;;5038185;28;20179;-82
2023/07/30 11:00:39;;;;;;;3.42;1.10;;;;;;;;;;5023100;28;20118;-81
2023/07/30 11:03:05;;;;;;;2.33;1.00;;;;;;;;;;5010547;28;20072;-81
2023/07/30 11:05:30;;;;;;;3.55;0.88;;;;;;;;;;5016219;28;20049;-83
2023/07/30 11:07:56;;;;;;;4.03;1.15;;;;;;;;;;5016920;28;20045;-82
2023/07/30 11:10:22;;;;;;;2.80;0.95;;;;;;;;;;4997035;28;20087;-81
2023/07/30 11:12:50;;;;;;;5.55;1.00;;;;;;;;;;5004065;28;20056;-82
2023/07/30 11:15:16;;;;;;;3.28;1.10;;;;;;;;;;4999493;28;20501;-81
2023/07/30 11:17:44;;;;;;;3.45;1.08;;;;;;;;;;5021058;28;20037;-82
2023/07/30 11:20:22;;;;;;;4.93;1.23;;;;;;;;;;5031679;28;20413;-82
2023/07/30 11:22:48;;;;;;;4.55;1.30;;;;;;;;;;4999749;28;20037;-81
2023/07/30 11:25:16;;;;;;;3.25;1.20;;;;;;;;;;4991288;28;20037;-81
2023/07/30 11:27:48;;;;;;;4.03;1.17;;;;;;;;;;5018660;28;20060;-82
2023/07/30 11:30:14;;;;;;;3.13;0.95;;;;;;;;;;5028956;28;20025;-82
2023/07/30 11:32:41;;;;;;;5.45;1.17;;;;;;;;;;5009930;28;20358;-82
2023/07/30 11:35:07;;;;;;;4.25;1.15;;;;;;;;;;5015200;28;20033;-82
2023/07/30 11:37:33;;;;;;;3.30;1.00;;;;;;;;;;5035531;28;20036;-80
2023/07/30 11:39:59;;;;;;;4.57;1.05;;;;;;;;;;5004767;28;20049;-81
2023/07/30 11:42:25;;;;;;;4.00;0.95;;;;;;;;;;5028568;28;20029;-82
2023/07/30 11:44:56;;;;;;;3.53;1.00;;;;;;;;;;5001692;28;20034;-82
2023/07/30 11:47:25;;;;;;;4.25;1.30;;;;;;;;;;5000020;28;20042;-82
2023/07/30 11:49:59;;;;;;;3.20;1.10;;;;;;;;;;4999946;28;20116;-81
2023/07/30 11:52:28;;;;;;;4.35;1.48;;;;;;;;;;5031444;28;20133;-82
2023/07/30 11:55:03;;;;;;;2.90;1.00;;;;;;;;;;5017485;28;20063;-81
2023/07/30 11:57:35;;;;;;;4.10;1.30;;;;;;;;;;5002958;28;20515;-82
2023/07/30 12:00:00;;;;;;;3.70;1.00;;;;;;;;;;5024139;28;20493;-81
2023/07/30 12:02:26;;;;;;;3.35;1.00;;;;;;;;;;5023431;28;20034;-82
2023/07/30 12:04:51;;;;;;;4.25;1.50;;;;;;;;;;5021766;28;20049;-81
2023/07/30 12:07:26;;;;;;;4.05;1.25;;;;;;;;;;5035739;28;20034;-81
2023/07/30 12:09:52;;;;;;;3.80;1.10;;;;;;;;;;5016139;28;20789;-81
2023/07/30 12:12:27;;;;;;;3.65;1.10;;;;;;;;;;5016697;28;20034;-82
2023/07/30 12:14:54;;;;;;;3.90;1.17;;;;;;;;;;5011222;28;20873;-80
2023/07/30 12:17:19;;;;;;;3.30;1.00;;;;;;;;;;5017064;28;20048;-80
2023/07/30 12:19:45;;;;;;;4.95;1.55;;;;;;;;;;5023196;28;20041;-82
2023/07/30 12:22:11;;;;;;;4.13;1.40;;;;;;;;;;4990436;28;20033;-81
2023/07/30 12:24:36;;;;;;;4.88;1.20;;;;;;;;;;5009567;28;20405;-81
2023/07/30 12:27:02;;;;;;;4.05;1.50;;;;;;;;;;5000827;28;20042;-82
2023/07/30 12:29:27;;;;;;;5.05;1.50;;;;;;;;;;5015820;28;20052;-81
2023/07/30 12:31:53;;;;;;;4.32;1.27;;;;;;;;;;4998475;28;20439;-81
2023/07/30 12:34:23;;;;;;;5.38;1.30;;;;;;;;;;5002907;28;26148;-81
2023/07/30 12:36:48;;;;;;;2.80;1.27;;;;;;;;;;5017214;28;20038;-81
2023/07/30 12:39:16;;;;;;;3.97;1.52;;;;;;;;;;5015741;28;20511;-81
2023/07/30 12:41:41;;;;;;;3.72;1.40;;;;;;;;;;5004528;28;20040;-81
2023/07/30 12:44:17;;;;;;;3.88;1.40;;;;;;;;;;5008572;28;20034;-80
2023/07/30 12:46:43;;;;;;;6.05;1.60;;;;;;;;;;5001215;28;20057;-79
2023/07/30 12:49:08;;;;;;;4.72;1.60;;;;;;;;;;5004873;28;20069;-80
2023/07/30 12:51:34;;;;;;;4.60;1.50;;;;;;;;;;5031161;28;20161;-80
2023/07/30 12:54:03;;;;;;;3.90;1.40;;;;;;;;;;5011816;28;20032;-80
2023/07/30 12:56:28;;;;;;;5.70;1.60;;;;;;;;;;5015255;28;20388;-80
2023/07/30 12:58:54;;;;;;;3.65;1.42;;;;;;;;;;5001244;28;20034;-81
2023/07/30 13:01:19;;;;;;;2.97;1.15;;;;;;;;;;4999771;28;20128;-80
2023/07/30 13:03:44;;;;;;;3.63;1.30;;;;;;;;;;5048160;28;20038;-80
2023/07/30 13:06:11;;;;;;;6.18;1.60;;;;;;;;;;4999801;28;20038;-81
2023/07/30 13:08:37;;;;;;;3.58;1.33;;;;;;;;;;4998426;28;20446;-80
2023/07/30 13:11:02;;;;;;;3.92;1.58;;;;;;;;;;5003395;28;20116;-80
2023/07/30 13:13:28;;;;;;;3.30;1.40;;;;;;;;;;5012853;28;20060;-81
2023/07/30 13:15:57;;;;;;;3.67;1.38;;;;;;;;;;5000960;28;20038;-81
2023/07/30 13:18:26;;;;;;;5.75;2.17;;;;;;;;;;5015313;28;20033;-81
2023/07/30 13:20:51;;;;;;;4.05;1.48;;;;;;;;;;4995252;28;20060;-80
2023/07/30 13:23:16;;;;;;;3.92;1.67;;;;;;;;;;5003562;28;20117;-80
2023/07/30 13:25:42;;;;;;;4.35;1.70;;;;;;;;;;5007517;28;20485;-80
2023/07/30 13:28:09;;;;;;;3.20;1.63;;;;;;;;;;5024062;28;20393;-82
2023/07/30 13:30:34;;;;;;;3.65;1.50;;;;;;;;;;5011966;28;20034;-80
2023/07/30 13:32:59;;;;;;;4.18;1.60;;;;;;;;;;5040545;28;20526;-81
2023/07/30 13:35:25;;;;;;;3.92;1.58;;;;;;;;;;5009688;28;20039;-81
2023/07/30 13:37:50;;;;;;;2.42;1.17;;;;;;;;;;5013383;28;20052;-80
2023/07/30 13:40:16;;;;;;;4.10;1.70;;;;;;;;;;5013410;28;20101;-80
2023/07/30 13:42:41;;;;;;;4.50;1.58;;;;;;;;;;5005506;28;20034;-80
2023/07/30 13:45:07;;;;;;;3.13;1.30;;;;;;;;;;5006105;28;20292;-79
2023/07/30 13:47:32;;;;;;;4.03;1.30;;;;;;;;;;5005874;28;20033;-80
2023/07/30 13:49:58;;;;;;;3.63;1.30;;;;;;;;;;5004119;28;20041;-81
2023/07/30 13:52:25;;;;;;;2.60;1.08;;;;;;;;;;5025991;28;21190;-80
2023/07/30 13:54:51;;;;;;;2.88;0.98;;;;;;;;;;5011496;28;20042;-80
2023/07/30 13:57:26;;;;;;;2.90;1.00;;;;;;;;;;4998999;28;20026;-80
2023/07/30 13:59:56;;;;;;;2.85;1.08;;;;;;;;;;5036477;28;20559;-80
2023/07/30 14:02:22;;;;;;;2.53;0.85;;;;;;;;;;5011028;28;20034;-80
2023/07/30 14:04:47;;;;;;;3.50;0.90;;;;;;;;;;5031264;28;20076;-82
2023/07/30 14:07:12;;;;;;;3.05;0.85;;;;;;;;;;5006993;28;20047;-80
2023/07/30 14:09:38;;;;;;;3.88;0.80;;;;;;;;;;5011093;28;20782;-81
2023/07/30 14:12:04;;;;;;;3.55;1.00;;;;;;;;;;4991983;28;20037;-81
2023/07/30 14:14:32;;;;;;;2.95;0.88;;;;;;;;;;5000990;28;20049;-80
2023/07/30 14:16:58;;;;;;;3.22;0.80;;;;;;;;;;5015720;28;20124;-81
2023/07/30 14:19:23;;;;;;;3.75;1.10;;;;;;;;;;4993675;28;20171;-81
2023/07/30 14:21:49;;;;;;;3.13;1.02;;;;;;;;;;5005076;28;20475;-82
2023/07/30 14:24:15;;;;;;;3.85;1.10;;;;;;;;;;5029390;28;20036;-81
2023/07/30 14:26:40;;;;;;;4.70;1.10;;;;;;;;;;5004892;28;20388;-81
2023/07/30 14:29:06;;;;;;;4.70;1.13;;;;;;;;;;4998261;28;20397;-82
2023/07/30 14:31:31;;;;;;;4.22;1.27;;;;;;;;;;5006338;28;20435;-81
2023/07/30 14:33:57;;;;;;;3.22;1.08;;;;;;;;;;5021012;28;20445;-83
2023/07/30 14:36:23;;;;;;;5.70;1.40;;;;;;;;;;4987483;28;20172;-80
2023/07/30 14:38:48;;;;;;;3.92;1.00;;;;;;;;;;5000827;28;20044;-80
2023/07/30 14:41:14;;;;;;;5.47;1.20;;;;;;;;;;4994087;28;20059;-80